createdAt,value
2023-04-19T00:00:46.304Z,8.80
2023-04-19T00:03:18.875Z,8.80
2023-04-19T00:05:54.004Z,8.80
2023-04-19T00:08:26.710Z,8.80
2023-04-19T00:10:58.763Z,8.80
2023-04-19T00:13:30.817Z,8.80
2023-04-19T00:16:02.977Z,8.80
2023-04-19T00:18:35.748Z,8.80
2023-04-19T00:21:07.941Z,8.90
2023-04-19T00:23:40.088Z,8.80
2023-04-19T00:26:15.748Z,8.80
2023-04-19T00:28:52.733Z,8.70
2023-04-19T00:31:25.325Z,8.80
2023-04-19T00:33:57.977Z,8.70
2023-04-19T00:36:32.264Z,8.70
2023-04-19T00:39:04.523Z,8.70
2023-04-19T00:41:36.571Z,8.70
2023-04-19T00:44:09.559Z,8.60
2023-04-19T00:46:42.755Z,8.60
2023-04-19T00:49:15.428Z,8.60
2023-04-19T00:51:48.878Z,8.60
2023-04-19T00:54:21.495Z,8.60
2023-04-19T00:56:55.938Z,8.60
2023-04-19T00:59:31.464Z,8.50
2023-04-19T01:02:03.623Z,8.60
2023-04-19T01:04:36.312Z,8.60
2023-04-19T01:07:09.275Z,8.50
2023-04-19T01:09:43.937Z,8.50
2023-04-19T01:12:16.043Z,8.50
2023-04-19T01:14:48.455Z,8.50
2023-04-19T01:17:23.377Z,8.50
2023-04-19T01:20:04.129Z,8.50
2023-04-19T01:22:37.845Z,8.50
2023-04-19T01:25:11.670Z,8.50
2023-04-19T01:27:44.631Z,8.50
2023-04-19T01:30:16.957Z,8.40
2023-04-19T01:32:49.552Z,8.50
2023-04-19T01:35:21.753Z,8.40
2023-04-19T01:37:56.600Z,8.40
2023-04-19T01:40:28.821Z,8.40
2023-04-19T01:43:00.926Z,8.50
2023-04-19T01:45:34.240Z,8.40
2023-04-19T01:48:06.718Z,8.50
2023-04-19T01:50:39.927Z,8.50
2023-04-19T01:53:12.253Z,8.50
2023-04-19T01:55:44.365Z,8.50
2023-04-19T01:58:17.331Z,8.40
2023-04-19T02:00:50.529Z,8.50
2023-04-19T02:03:23.386Z,8.30
2023-04-19T02:05:55.608Z,8.30
2023-04-19T02:08:27.910Z,8.30
2023-04-19T02:10:59.956Z,8.40
2023-04-19T02:13:33.153Z,8.40
2023-04-19T02:16:06.273Z,8.30
2023-04-19T02:18:41.773Z,8.30
2023-04-19T02:21:14.248Z,8.40
2023-04-19T02:23:46.582Z,8.30
2023-04-19T02:26:21.011Z,8.30
2023-04-19T02:28:53.588Z,8.30
2023-04-19T02:31:25.982Z,8.30
2023-04-19T02:33:58.196Z,8.30
2023-04-19T02:36:30.961Z,8.40
2023-04-19T02:39:03.167Z,8.40
2023-04-19T02:41:36.139Z,8.40
2023-04-19T02:44:08.718Z,8.40
2023-04-19T02:46:40.880Z,8.40
2023-04-19T02:49:13.041Z,8.40
2023-04-19T02:51:45.674Z,8.30
2023-04-19T02:54:18.893Z,8.40
2023-04-19T02:56:52.406Z,8.40
2023-04-19T02:59:24.520Z,8.40
2023-04-19T03:01:57.397Z,8.40
2023-04-19T03:04:31.605Z,8.30
2023-04-19T03:07:04.113Z,8.30
2023-04-19T03:09:36.721Z,8.30
2023-04-19T03:12:09.765Z,8.30
2023-04-19T03:14:42.134Z,8.30
2023-04-19T03:17:14.736Z,8.30
2023-04-19T03:19:47.849Z,8.30
2023-04-19T03:22:20.623Z,8.30
2023-04-19T03:24:53.064Z,8.30
2023-04-19T03:27:28.037Z,8.30
2023-04-19T03:30:05.583Z,8.30
2023-04-19T03:32:38.623Z,8.30
2023-04-19T03:35:12.496Z,8.30
2023-04-19T03:37:44.832Z,8.30
2023-04-19T03:40:16.987Z,8.30
2023-04-19T03:42:49.155Z,8.30
2023-04-19T03:45:34.245Z,8.30
2023-04-19T03:48:06.692Z,8.30
2023-04-19T03:50:40.020Z,8.30
2023-04-19T03:53:14.055Z,8.30
2023-04-19T03:55:46.179Z,8.20
2023-04-19T03:58:18.723Z,8.20
2023-04-19T04:01:03.799Z,8.30
2023-04-19T04:03:36.757Z,8.30
2023-04-19T04:06:09.736Z,8.30
2023-04-19T04:08:42.358Z,8.30
2023-04-19T04:11:14.635Z,8.30
2023-04-19T04:13:49.708Z,8.30
2023-04-19T04:16:26.113Z,8.30
2023-04-19T04:18:59.695Z,8.30
2023-04-19T04:21:33.686Z,8.30
2023-04-19T04:24:08.173Z,8.30
2023-04-19T04:27:06.027Z,8.30
2023-04-19T04:29:41.482Z,8.30
2023-04-19T04:32:18.383Z,8.30
2023-04-19T04:34:52.058Z,8.30
2023-04-19T04:37:36.084Z,8.30
2023-04-19T04:40:10.205Z,8.20
2023-04-19T04:42:43.286Z,8.30
2023-04-19T04:45:18.679Z,8.30
2023-04-19T04:47:51.685Z,8.30
2023-04-19T04:50:24.212Z,8.30
2023-04-19T04:52:56.432Z,8.20
2023-04-19T04:55:35.490Z,8.20
2023-04-19T04:58:08.147Z,8.20
2023-04-19T05:01:09.676Z,8.30
2023-04-19T05:03:45.900Z,8.20
2023-04-19T05:06:22.938Z,8.20
2023-04-19T05:08:55.277Z,8.20
2023-04-19T05:11:36.436Z,8.20
2023-04-19T05:14:08.925Z,8.20
2023-04-19T05:16:41.122Z,8.20
2023-04-19T05:19:13.417Z,8.20
2023-04-19T05:21:51.605Z,8.20
2023-04-19T05:24:24.204Z,8.20
2023-04-19T05:26:57.132Z,8.20
2023-04-19T05:29:30.826Z,8.20
2023-04-19T05:32:03.017Z,8.20
2023-04-19T05:34:39.080Z,8.20
2023-04-19T05:37:11.495Z,8.30
2023-04-19T05:39:44.397Z,8.30
2023-04-19T05:42:17.012Z,8.30
2023-04-19T05:44:49.409Z,8.30
2023-04-19T05:47:22.079Z,8.30
2023-04-19T05:50:20.658Z,8.30
2023-04-19T05:53:11.994Z,8.30
2023-04-19T05:55:45.757Z,8.30
2023-04-19T05:58:18.474Z,8.30
2023-04-19T06:00:51.872Z,8.30
2023-04-19T06:03:28.733Z,8.30
2023-04-19T06:06:04.827Z,8.40
2023-04-19T06:08:37.697Z,8.30
2023-04-19T06:11:20.272Z,8.40
2023-04-19T06:13:56.928Z,8.40
2023-04-19T06:16:29.360Z,8.40
2023-04-19T06:19:01.829Z,8.40
2023-04-19T06:21:35.135Z,8.40
2023-04-19T06:24:08.508Z,8.40
2023-04-19T06:26:40.794Z,8.40
2023-04-19T06:29:13.210Z,8.40
2023-04-19T06:31:46.560Z,8.40
2023-04-19T06:34:19.535Z,8.30
2023-04-19T06:36:52.065Z,8.30
2023-04-19T06:39:24.182Z,8.30
2023-04-19T06:41:56.948Z,8.30
2023-04-19T06:44:30.174Z,8.40
2023-04-19T06:47:02.329Z,8.30
2023-04-19T06:49:35.130Z,8.30
2023-04-19T06:52:07.303Z,8.30
2023-04-19T06:54:39.414Z,8.30
2023-04-19T06:57:11.553Z,8.30
2023-04-19T06:59:44.559Z,8.40
2023-04-19T07:02:17.323Z,8.40
2023-04-19T07:04:49.739Z,8.40
2023-04-19T07:07:22.194Z,8.40
2023-04-19T07:09:54.317Z,8.40
2023-04-19T07:12:26.661Z,8.40
2023-04-19T07:14:58.748Z,8.40
2023-04-19T07:17:30.936Z,8.40
2023-04-19T07:20:05.277Z,8.40
2023-04-19T07:22:37.606Z,8.40
2023-04-19T07:25:10.168Z,8.40
2023-04-19T07:27:42.780Z,8.40
2023-04-19T07:30:15.107Z,8.40
2023-04-19T07:32:48.217Z,8.40
2023-04-19T07:35:20.892Z,8.50
2023-04-19T07:37:53.653Z,8.50
2023-04-19T07:40:26.256Z,8.50
2023-04-19T07:42:58.505Z,8.40
2023-04-19T07:45:31.557Z,8.40
2023-04-19T07:48:03.876Z,8.40
2023-04-19T07:50:37.329Z,8.50
2023-04-19T07:53:09.917Z,8.50
2023-04-19T07:55:42.173Z,8.50
2023-04-19T07:58:14.703Z,8.60
2023-04-19T08:00:46.875Z,8.50
2023-04-19T08:03:19.250Z,8.40
2023-04-19T08:05:51.719Z,8.50
2023-04-19T08:08:25.313Z,8.60
2023-04-19T08:10:58.005Z,8.70
2023-04-19T08:13:31.354Z,8.80
2023-04-19T08:16:32.166Z,8.80
2023-04-19T08:18:56.182Z,8.90
2023-04-19T08:21:34.670Z,9.00
2023-04-19T08:24:12.499Z,9.10
2023-04-19T08:26:44.660Z,9.20
2023-04-19T08:29:17.094Z,9.20
2023-04-19T08:31:49.642Z,9.30
2023-04-19T08:34:24.626Z,9.50
2023-04-19T08:37:03.949Z,9.50
2023-04-19T08:39:37.032Z,9.60
2023-04-19T08:42:24.134Z,9.70
2023-04-19T08:50:32.354Z,9.60
2023-04-19T08:53:23.799Z,9.70
2023-04-19T08:56:10.670Z,9.80
2023-04-19T09:01:34.556Z,9.90
2023-04-19T09:04:26.470Z,9.90
2023-04-19T09:07:00.718Z,9.90
2023-04-19T09:09:39.057Z,10.10
2023-04-19T09:12:18.961Z,10.10
2023-04-19T09:15:01.117Z,10.00
2023-04-19T09:17:38.888Z,10.00
2023-04-19T09:20:11.464Z,10.00
2023-04-19T09:22:43.616Z,10.10
2023-04-19T09:25:41.863Z,10.20
2023-04-19T09:28:18.140Z,10.20
2023-04-19T09:33:39.681Z,10.40
2023-04-19T09:36:14.694Z,10.40
2023-04-19T09:38:49.124Z,10.10
2023-04-19T09:41:21.895Z,10.10
2023-04-19T09:46:37.379Z,10.40
2023-04-19T09:49:36.813Z,10.40
2023-04-19T09:52:15.425Z,10.50
2023-04-19T09:54:49.083Z,10.80
2023-04-19T09:57:21.313Z,11.10
2023-04-19T09:59:53.511Z,11.30
2023-04-19T10:02:30.539Z,11.50
2023-04-19T10:05:19.938Z,11.50
2023-04-19T10:07:59.568Z,11.70
2023-04-19T10:10:41.667Z,11.80
2023-04-19T10:13:26.474Z,11.80
2023-04-19T10:16:11.641Z,11.80
2023-04-19T10:18:50.652Z,11.80
2023-04-19T10:21:23.933Z,11.80
2023-04-19T10:23:57.412Z,11.80
2023-04-19T10:26:29.833Z,11.90
2023-04-19T10:29:02.262Z,11.70
2023-04-19T10:31:34.533Z,11.50
2023-04-19T10:34:06.968Z,11.50
2023-04-19T10:36:39.202Z,11.50
2023-04-19T10:39:41.566Z,11.40
2023-04-19T10:42:13.713Z,11.50
2023-04-19T10:45:25.031Z,11.50
2023-04-19T10:47:57.236Z,11.40
2023-04-19T10:50:29.391Z,11.30
2023-04-19T10:53:40.089Z,11.30
2023-04-19T10:56:12.522Z,11.20
2023-04-19T10:59:05.652Z,11.20
2023-04-19T11:01:40.386Z,11.20
2023-04-19T11:04:14.652Z,11.00
2023-04-19T11:06:52.933Z,10.90
2023-04-19T11:09:25.525Z,10.90
2023-04-19T11:12:03.987Z,10.90
2023-04-19T11:14:42.114Z,10.90
2023-04-19T11:17:27.317Z,10.80
2023-04-19T11:20:08.685Z,10.80
2023-04-19T11:22:43.069Z,10.70
2023-04-19T11:25:16.665Z,10.60
2023-04-19T11:27:49.929Z,10.50
2023-04-19T11:30:28.900Z,10.50
2023-04-19T11:33:01.803Z,10.40
2023-04-19T11:35:34.176Z,10.30
2023-04-19T11:38:06.698Z,10.30
2023-04-19T11:40:38.939Z,10.30
2023-04-19T11:43:11.649Z,10.30
2023-04-19T11:45:44.012Z,10.30
2023-04-19T11:48:16.556Z,10.20
2023-04-19T11:50:50.778Z,10.20
2023-04-19T11:53:25.739Z,10.20
2023-04-19T11:56:08.520Z,10.10
2023-04-19T11:58:51.514Z,9.90
2023-04-19T12:01:25.601Z,9.80
2023-04-19T12:03:57.958Z,9.80
2023-04-19T12:06:34.278Z,9.80
2023-04-19T12:09:09.461Z,9.70
2023-04-19T12:11:50.400Z,9.70
2023-04-19T12:14:24.022Z,9.70
2023-04-19T12:17:15.968Z,9.70
2023-04-19T12:19:48.752Z,9.60
2023-04-19T12:22:21.144Z,9.60
2023-04-19T12:24:54.697Z,9.50
2023-04-19T12:27:26.770Z,9.50
2023-04-19T12:29:58.942Z,9.50
2023-04-19T12:32:31.399Z,9.50
2023-04-19T12:35:03.606Z,9.50
2023-04-19T12:37:36.718Z,9.50
2023-04-19T12:40:09.773Z,9.50
2023-04-19T12:42:41.874Z,9.50
2023-04-19T12:45:14.965Z,9.40
2023-04-19T12:47:48.598Z,9.30
2023-04-19T12:50:21.012Z,9.20
2023-04-19T12:52:53.972Z,9.00
2023-04-19T12:55:26.743Z,9.00
2023-04-19T12:57:58.867Z,9.00
2023-04-19T13:00:31.797Z,8.90
2023-04-19T13:03:04.433Z,9.00
2023-04-19T13:05:36.958Z,9.00
2023-04-19T13:08:09.058Z,9.00
2023-04-19T13:10:41.724Z,9.00
2023-04-19T13:13:13.999Z,9.00
2023-04-19T13:15:46.275Z,9.00
2023-04-19T13:18:19.648Z,9.00
2023-04-19T13:20:54.229Z,9.00
2023-04-19T13:23:26.669Z,9.00
2023-04-19T13:25:58.876Z,9.00
2023-04-19T13:28:31.308Z,9.00
2023-04-19T13:31:05.273Z,9.10
2023-04-19T13:33:37.518Z,9.20
2023-04-19T13:36:09.757Z,9.20
2023-04-19T13:38:42.070Z,9.20
2023-04-19T13:41:14.398Z,9.20
2023-04-19T13:43:47.108Z,9.30
2023-04-19T13:46:19.477Z,9.30
2023-04-19T13:48:51.654Z,9.30
2023-04-19T13:51:24.127Z,9.30
2023-04-19T13:53:57.219Z,9.30
2023-04-19T13:56:30.340Z,9.20
2023-04-19T13:59:02.494Z,9.20
2023-04-19T14:01:35.877Z,9.20
2023-04-19T14:04:08.692Z,9.20
2023-04-19T14:06:41.158Z,9.10
2023-04-19T14:09:13.407Z,9.10
2023-04-19T14:11:45.763Z,9.00
2023-04-19T14:14:18.322Z,9.00
2023-04-19T14:16:53.928Z,8.90
2023-04-19T14:19:26.558Z,8.80
2023-04-19T14:21:58.883Z,8.70
2023-04-19T14:24:31.068Z,8.60
2023-04-19T14:27:11.016Z,8.50
2023-04-19T14:29:44.102Z,8.30
2023-04-19T14:32:26.083Z,8.30
2023-04-19T14:34:59.963Z,8.20
2023-04-19T14:37:32.988Z,8.10
2023-04-19T14:40:06.405Z,8.10
2023-04-19T14:42:38.643Z,8.00
2023-04-19T14:45:11.411Z,7.90
2023-04-19T14:47:43.606Z,7.90
2023-04-19T14:50:15.729Z,7.80
2023-04-19T14:52:48.065Z,7.80
2023-04-19T14:55:20.321Z,7.80
2023-04-19T14:57:52.960Z,7.90
2023-04-19T15:00:25.247Z,7.80
2023-04-19T15:02:58.048Z,7.80
2023-04-19T15:05:30.392Z,7.60
2023-04-19T15:08:02.826Z,7.50
2023-04-19T15:10:37.612Z,7.50
2023-04-19T15:13:10.419Z,7.40
2023-04-19T15:15:42.794Z,7.30
2023-04-19T15:18:15.413Z,7.20
2023-04-19T15:20:47.546Z,7.10
2023-04-19T15:23:24.447Z,7.20
2023-04-19T15:25:56.578Z,7.00
2023-04-19T15:28:28.852Z,7.00
2023-04-19T15:31:04.236Z,7.00
2023-04-19T15:33:37.836Z,7.00
2023-04-19T15:36:10.278Z,7.00
2023-04-19T15:38:43.955Z,7.00
2023-04-19T15:41:17.537Z,6.90
2023-04-19T15:43:49.689Z,6.90
2023-04-19T15:46:21.961Z,6.80
2023-04-19T15:48:54.246Z,6.80
2023-04-19T15:51:27.637Z,6.80
2023-04-19T15:53:59.896Z,6.80
2023-04-19T15:56:32.622Z,6.80
2023-04-19T15:59:04.718Z,6.70
2023-04-19T16:01:36.919Z,6.70
2023-04-19T16:04:09.322Z,6.70
2023-04-19T16:06:42.207Z,6.70
2023-04-19T16:09:15.009Z,6.80
2023-04-19T16:11:47.971Z,6.80
2023-04-19T16:14:20.311Z,6.80
2023-04-19T16:16:53.963Z,6.80
2023-04-19T16:19:26.158Z,6.70
2023-04-19T16:22:02.237Z,6.70
2023-04-19T16:24:34.715Z,6.70
2023-04-19T16:27:07.493Z,6.70
2023-04-19T16:29:39.833Z,6.60
2023-04-19T16:32:23.132Z,6.60
2023-04-19T16:35:02.075Z,6.60
2023-04-19T16:37:56.691Z,6.60
2023-04-19T16:41:15.855Z,6.50
2023-04-19T16:47:51.950Z,6.40
2023-04-19T16:50:24.104Z,6.40
2023-04-19T16:52:56.273Z,6.40
2023-04-19T16:55:29.015Z,6.30
2023-04-19T16:58:01.376Z,6.20
2023-04-19T17:00:33.575Z,6.20
2023-04-19T17:03:06.160Z,6.10
2023-04-19T17:05:38.676Z,6.00
2023-04-19T17:08:12.255Z,6.00
2023-04-19T17:10:44.271Z,5.90
2023-04-19T17:13:16.451Z,5.80
2023-04-19T17:15:49.600Z,5.80
2023-04-19T17:18:22.440Z,5.90
2023-04-19T17:20:54.742Z,5.80
2023-04-19T17:23:27.176Z,5.70
2023-04-19T17:25:59.409Z,5.70
2023-04-19T17:28:31.496Z,5.70
2023-04-19T17:31:04.330Z,5.60
2023-04-19T17:33:38.846Z,5.60
2023-04-19T17:36:11.021Z,5.60
2023-04-19T17:38:43.408Z,5.70
2023-04-19T17:41:16.942Z,5.60
2023-04-19T17:43:49.141Z,5.60
2023-04-19T17:46:22.509Z,5.70
2023-04-19T17:48:55.710Z,5.70
2023-04-19T17:51:27.859Z,5.70
2023-04-19T17:54:00.135Z,5.60
2023-04-19T17:56:32.709Z,5.50
2023-04-19T17:59:04.897Z,5.50
2023-04-19T18:01:38.264Z,5.50
2023-04-19T18:04:14.479Z,5.40
2023-04-19T18:06:47.100Z,5.30
2023-04-19T18:09:20.385Z,5.20
2023-04-19T18:11:53.180Z,5.30
2023-04-19T18:14:25.420Z,5.30
2023-04-19T18:16:57.773Z,5.20
2023-04-19T18:19:29.945Z,5.10
2023-04-19T18:22:02.030Z,5.10
2023-04-19T18:24:34.729Z,5.20
2023-04-19T18:27:07.817Z,5.10
2023-04-19T18:29:40.023Z,5.10
2023-04-19T18:32:12.356Z,5.10
2023-04-19T18:34:44.867Z,5.10
2023-04-19T18:37:17.461Z,5.20
2023-04-19T18:39:49.682Z,5.20
2023-04-19T18:42:22.018Z,5.30
2023-04-19T18:44:54.767Z,5.20
2023-04-19T18:47:27.759Z,5.20
2023-04-19T18:50:05.327Z,5.20
2023-04-19T18:52:38.434Z,5.20
2023-04-19T18:55:12.248Z,5.20
2023-04-19T18:57:44.603Z,5.10
2023-04-19T19:00:17.445Z,5.10
2023-04-19T19:02:49.699Z,5.10
2023-04-19T19:05:22.445Z,5.20
2023-04-19T19:07:54.830Z,5.20
2023-04-19T19:13:06.442Z,5.10
2023-04-19T19:15:40.832Z,5.10
2023-04-19T19:18:13.685Z,5.00
2023-04-19T19:20:48.053Z,5.00
2023-04-19T19:23:32.184Z,5.10
2023-04-19T19:26:07.788Z,5.10
2023-04-19T19:28:40.383Z,5.10
2023-04-19T19:31:12.534Z,5.10
2023-04-19T19:33:51.918Z,5.10
2023-04-19T19:36:36.368Z,5.10
2023-04-19T19:39:08.501Z,5.20
2023-04-19T19:42:04.654Z,5.10
2023-04-19T19:44:34.339Z,5.20
2023-04-19T19:47:10.146Z,5.10
2023-04-19T19:52:18.540Z,5.10
2023-04-19T19:54:52.581Z,5.10
2023-04-19T20:00:17.975Z,5.10
2023-04-19T20:02:55.924Z,5.10
2023-04-19T20:05:29.009Z,5.20
2023-04-19T20:08:14.425Z,5.20
2023-04-19T20:10:46.747Z,5.10
2023-04-19T20:13:18.864Z,5.10
2023-04-19T20:15:52.767Z,5.00
2023-04-19T20:18:25.924Z,5.00
2023-04-19T20:20:58.846Z,5.00
2023-04-19T20:23:30.929Z,5.00
2023-04-19T20:26:03.024Z,5.10
2023-04-19T20:28:35.445Z,5.10
2023-04-19T20:31:07.823Z,5.10
2023-04-19T20:33:40.064Z,5.10
2023-04-19T20:36:14.077Z,5.10
2023-04-19T20:38:46.961Z,5.00
2023-04-19T20:41:19.534Z,5.00
2023-04-19T20:43:52.283Z,4.90
2023-04-19T20:46:24.849Z,4.80
2023-04-19T20:48:57.061Z,4.90
2023-04-19T20:51:29.252Z,5.00
2023-04-19T20:54:01.778Z,5.00
2023-04-19T20:56:33.875Z,4.90
2023-04-19T20:59:06.390Z,4.80
2023-04-19T21:01:39.380Z,4.80
2023-04-19T21:04:11.632Z,4.80
2023-04-19T21:06:43.980Z,4.80
2023-04-19T21:09:16.304Z,4.90
2023-04-19T21:11:48.850Z,5.00
2023-04-19T21:14:21.030Z,5.00
2023-04-19T21:16:53.162Z,5.00
2023-04-19T21:19:25.951Z,5.00
2023-04-19T21:21:59.334Z,5.10
2023-04-19T21:24:31.589Z,5.00
2023-04-19T21:27:03.830Z,5.00
2023-04-19T21:29:35.881Z,5.00
2023-04-19T21:32:07.956Z,5.00
2023-04-19T21:34:40.490Z,5.00
2023-04-19T21:37:12.565Z,4.90
2023-04-19T21:39:44.688Z,5.00
2023-04-19T21:42:16.803Z,5.00
2023-04-19T21:44:48.942Z,5.00
2023-04-19T21:47:21.503Z,5.00
2023-04-19T21:49:54.042Z,5.10
2023-04-19T21:52:26.123Z,5.00
2023-04-19T21:54:58.325Z,5.10
2023-04-19T21:57:31.168Z,5.00
2023-04-19T22:00:04.804Z,5.00
2023-04-19T22:02:39.119Z,5.00
2023-04-19T22:05:13.282Z,5.10
2023-04-19T22:07:45.600Z,5.10
2023-04-19T22:10:17.825Z,5.10
2023-04-19T22:12:58.040Z,5.10
2023-04-19T22:15:32.033Z,5.00
2023-04-19T22:18:05.430Z,4.80
2023-04-19T22:20:38.569Z,4.80
2023-04-19T22:23:10.906Z,4.80
2023-04-19T22:25:43.062Z,4.90
2023-04-19T22:28:15.714Z,5.00
2023-04-19T22:30:47.854Z,5.00
2023-04-19T22:33:20.247Z,5.00
2023-04-19T22:35:52.318Z,5.00
2023-04-19T22:38:24.510Z,4.90
2023-04-19T22:40:56.551Z,4.90
2023-04-19T22:43:28.861Z,4.90
2023-04-19T22:46:01.534Z,4.90
2023-04-19T22:48:33.828Z,4.80
2023-04-19T22:51:06.657Z,4.90
2023-04-19T22:53:38.821Z,4.90
2023-04-19T22:56:10.984Z,4.90
2023-04-19T22:58:43.129Z,4.80
2023-04-19T23:01:16.573Z,4.80
2023-04-19T23:03:48.779Z,4.80
2023-04-19T23:06:20.921Z,4.80
2023-04-19T23:08:53.038Z,4.70
2023-04-19T23:11:26.238Z,4.70
2023-04-19T23:13:58.908Z,4.80
2023-04-19T23:16:33.510Z,4.80
2023-04-19T23:19:07.729Z,4.80
2023-04-19T23:21:39.824Z,4.80
2023-04-19T23:24:12.096Z,4.80
2023-04-19T23:26:44.243Z,4.90
2023-04-19T23:29:16.810Z,4.90
2023-04-19T23:31:49.279Z,4.90
2023-04-19T23:34:21.586Z,4.90
2023-04-19T23:36:54.170Z,4.90
2023-04-19T23:39:26.356Z,4.90
2023-04-19T23:41:58.740Z,4.90
2023-04-19T23:44:31.153Z,4.90
2023-04-19T23:47:04.280Z,4.90
2023-04-19T23:49:36.427Z,4.90
2023-04-19T23:52:08.636Z,4.90
2023-04-19T23:54:40.928Z,4.90
2023-04-19T23:57:12.996Z,4.90
2023-04-19T23:59:45.471Z,4.90
